createdAt,value
2018-10-12T00:00:46.071Z,18.75
2018-10-12T00:02:52.275Z,18.73
2018-10-12T00:04:58.367Z,18.65
2018-10-12T00:07:04.543Z,18.56
2018-10-12T00:09:11.486Z,18.46
2018-10-12T00:11:17.521Z,18.38
2018-10-12T00:13:23.610Z,18.29
2018-10-12T00:15:29.729Z,18.19
2018-10-12T00:17:35.820Z,18.09
2018-10-12T00:20:05.501Z,18.03
2018-10-12T00:22:33.596Z,18.01
2018-10-12T00:24:39.677Z,18.04
2018-10-12T00:26:45.805Z,18.08
2018-10-12T00:28:51.925Z,18.13
2018-10-12T00:30:58.059Z,18.16
2018-10-12T00:33:04.156Z,18.18
2018-10-12T00:35:10.385Z,18.19
2018-10-12T00:37:16.456Z,18.23
2018-10-12T00:39:22.536Z,18.26
2018-10-12T00:41:28.685Z,18.29
2018-10-12T00:43:34.841Z,18.33
2018-10-12T00:45:40.940Z,18.36
2018-10-12T00:47:51.527Z,18.39
2018-10-12T00:49:57.634Z,18.43
2018-10-12T00:52:03.840Z,18.43
2018-10-12T00:54:09.892Z,18.45
2018-10-12T00:56:16.016Z,18.44
2018-10-12T00:58:22.207Z,18.42
2018-10-12T01:00:28.295Z,18.40
2018-10-12T01:02:34.424Z,18.38
2018-10-12T01:04:40.540Z,18.38
2018-10-12T01:06:46.755Z,18.35
2018-10-12T01:08:52.789Z,18.33
2018-10-12T01:10:58.943Z,18.29
2018-10-12T01:13:05.132Z,18.20
2018-10-12T01:15:11.227Z,18.13
2018-10-12T01:17:17.372Z,18.10
2018-10-12T01:19:58.551Z,18.07
2018-10-12T01:22:27.857Z,17.99
2018-10-12T01:24:34.014Z,17.91
2018-10-12T01:26:40.985Z,17.86
2018-10-12T01:28:51.079Z,17.84
2018-10-12T01:30:57.231Z,17.82
2018-10-12T01:33:04.076Z,17.82
2018-10-12T01:35:10.165Z,17.84
2018-10-12T01:37:16.497Z,17.88
2018-10-12T01:39:22.611Z,17.92
2018-10-12T01:41:28.757Z,17.97
2018-10-12T01:43:34.868Z,18.03
2018-10-12T01:45:40.995Z,18.07
2018-10-12T01:47:47.124Z,18.11
2018-10-12T01:49:53.206Z,18.14
2018-10-12T01:51:59.396Z,18.17
2018-10-12T01:54:05.452Z,18.19
2018-10-12T01:56:11.537Z,18.21
2018-10-12T01:58:17.691Z,18.24
2018-10-12T02:00:23.894Z,18.24
2018-10-12T02:02:30.000Z,18.26
2018-10-12T02:04:36.124Z,18.25
2018-10-12T02:06:42.292Z,18.21
2018-10-12T02:08:48.384Z,18.21
2018-10-12T02:10:54.459Z,18.21
2018-10-12T02:13:00.596Z,18.24
2018-10-12T02:15:07.262Z,18.23
2018-10-12T02:17:13.351Z,18.22
2018-10-12T02:19:42.368Z,18.18
2018-10-12T02:22:10.569Z,18.17
2018-10-12T02:24:16.781Z,18.13
2018-10-12T02:26:22.875Z,18.12
2018-10-12T02:28:28.992Z,18.10
2018-10-12T02:30:35.176Z,18.09
2018-10-12T02:32:41.236Z,18.09
2018-10-12T02:34:47.288Z,18.09
2018-10-12T02:36:53.473Z,18.05
2018-10-12T02:38:59.712Z,17.99
2018-10-12T02:41:05.985Z,17.91
2018-10-12T02:43:12.719Z,17.85
2018-10-12T02:45:19.652Z,17.79
2018-10-12T02:47:25.739Z,17.75
2018-10-12T02:49:31.816Z,17.74
2018-10-12T02:51:38.200Z,17.74
2018-10-12T02:53:44.311Z,17.73
2018-10-12T02:55:50.414Z,17.72
2018-10-12T02:57:56.531Z,17.72
2018-10-12T03:00:02.769Z,17.70
2018-10-12T03:02:08.898Z,17.66
2018-10-12T03:04:14.976Z,17.62
2018-10-12T03:06:21.111Z,17.58
2018-10-12T03:08:27.159Z,17.57
2018-10-12T03:10:33.434Z,17.56
2018-10-12T03:12:39.615Z,17.55
2018-10-12T03:14:45.686Z,17.54
2018-10-12T03:16:51.819Z,17.56
2018-10-12T03:19:20.398Z,17.57
2018-10-12T03:21:49.291Z,17.56
2018-10-12T03:23:55.398Z,17.54
2018-10-12T03:26:01.492Z,17.54
2018-10-12T03:28:22.938Z,17.55
2018-10-12T03:30:29.073Z,17.55
2018-10-12T03:32:35.160Z,17.55
2018-10-12T03:34:41.446Z,17.54
2018-10-12T03:36:47.548Z,17.53
2018-10-12T03:38:53.621Z,17.54
2018-10-12T03:40:59.774Z,17.52
2018-10-12T03:43:05.893Z,17.49
2018-10-12T03:45:12.032Z,17.48
2018-10-12T03:47:20.185Z,17.45
2018-10-12T03:49:26.438Z,17.42
2018-10-12T03:51:32.484Z,17.38
2018-10-12T03:53:38.669Z,17.36
2018-10-12T03:55:44.765Z,17.35
2018-10-12T03:57:51.098Z,17.35
2018-10-12T03:59:57.215Z,17.35
2018-10-12T04:02:03.351Z,17.36
2018-10-12T04:04:09.598Z,17.36
2018-10-12T04:06:15.724Z,17.31
2018-10-12T04:08:21.843Z,17.22
2018-10-12T04:10:28.031Z,17.16
2018-10-12T04:12:34.255Z,17.12
2018-10-12T04:14:40.372Z,17.05
2018-10-12T04:16:46.450Z,16.98
2018-10-12T04:18:52.603Z,16.94
2018-10-12T04:21:21.835Z,16.91
2018-10-12T04:23:50.656Z,16.87
2018-10-12T04:25:56.804Z,16.85
2018-10-12T04:28:03.519Z,16.83
2018-10-12T04:30:10.056Z,16.79
2018-10-12T04:32:16.913Z,16.76
2018-10-12T04:34:23.109Z,16.79
2018-10-12T04:36:29.316Z,16.84
2018-10-12T04:40:56.312Z,16.86
2018-10-12T04:43:02.466Z,16.68
2018-10-12T04:45:08.598Z,16.62
2018-10-12T04:47:14.939Z,16.57
2018-10-12T04:49:21.067Z,16.55
2018-10-12T04:51:32.784Z,16.58
2018-10-12T04:53:38.990Z,16.58
2018-10-12T04:55:45.299Z,16.60
2018-10-12T04:57:51.414Z,16.63
2018-10-12T04:59:57.494Z,16.63
2018-10-12T05:02:03.878Z,16.65
2018-10-12T05:04:10.201Z,16.67
2018-10-12T05:06:16.273Z,16.69
2018-10-12T05:08:22.425Z,16.67
2018-10-12T05:10:28.527Z,16.62
2018-10-12T05:12:34.659Z,16.50
2018-10-12T05:14:40.782Z,16.39
2018-10-12T05:16:46.937Z,16.29
2018-10-12T05:18:53.076Z,16.21
2018-10-12T05:21:34.059Z,16.19
2018-10-12T05:23:59.296Z,16.17
2018-10-12T05:26:05.468Z,16.15
2018-10-12T05:28:11.535Z,16.17
2018-10-12T05:30:17.836Z,16.18
2018-10-12T05:32:23.955Z,16.20
2018-10-12T05:34:30.035Z,16.21
2018-10-12T05:36:36.311Z,16.18
2018-10-12T05:38:42.419Z,16.19
2018-10-12T05:40:48.665Z,16.23
2018-10-12T05:42:55.019Z,16.26
2018-10-12T05:45:01.071Z,16.31
2018-10-12T05:47:07.218Z,16.34
2018-10-12T05:49:30.346Z,16.38
2018-10-12T05:51:36.571Z,16.39
2018-10-12T05:53:43.025Z,16.36
2018-10-12T05:55:49.258Z,16.36
2018-10-12T05:57:55.308Z,16.39
2018-10-12T06:00:01.646Z,16.37
2018-10-12T06:02:07.847Z,16.37
2018-10-12T06:04:14.005Z,16.36
2018-10-12T06:06:20.526Z,16.38
2018-10-12T06:08:26.658Z,16.35
2018-10-12T06:10:32.796Z,16.35
2018-10-12T06:12:38.853Z,16.32
2018-10-12T06:14:44.995Z,16.28
2018-10-12T06:16:51.732Z,16.26
2018-10-12T06:18:58.529Z,16.28
2018-10-12T06:21:04.852Z,16.30
2018-10-12T06:23:10.946Z,16.30
2018-10-12T06:25:17.152Z,16.35
2018-10-12T06:27:23.328Z,16.41
2018-10-12T06:29:29.384Z,16.48
2018-10-12T06:31:35.480Z,16.54
2018-10-12T06:33:41.560Z,16.59
2018-10-12T06:35:47.651Z,16.63
2018-10-12T06:37:53.920Z,16.68
2018-10-12T06:40:00.035Z,16.73
2018-10-12T06:42:06.149Z,16.78
2018-10-12T06:44:12.221Z,16.82
2018-10-12T06:46:18.343Z,16.84
2018-10-12T06:48:24.410Z,16.88
2018-10-12T06:50:30.556Z,16.94
2018-10-12T06:52:36.915Z,17.01
2018-10-12T06:54:43.226Z,17.05
2018-10-12T06:56:49.352Z,17.11
2018-10-12T06:58:55.441Z,17.17
2018-10-12T07:01:01.659Z,17.23
2018-10-12T07:03:07.806Z,17.28
2018-10-12T07:05:14.010Z,17.30
2018-10-12T07:07:20.128Z,17.31
2018-10-12T07:09:26.304Z,17.33
2018-10-12T07:11:32.517Z,17.39
2018-10-12T07:13:38.680Z,17.46
2018-10-12T07:15:44.816Z,17.51
2018-10-12T07:17:50.937Z,17.56
2018-10-12T07:19:57.079Z,17.60
2018-10-12T07:22:03.676Z,17.63
2018-10-12T07:24:09.956Z,17.66
2018-10-12T07:26:16.097Z,17.70
2018-10-12T07:28:22.316Z,17.74
2018-10-12T07:30:28.423Z,17.78
2018-10-12T07:32:34.608Z,17.81
2018-10-12T07:34:40.909Z,17.84
2018-10-12T07:36:47.187Z,17.86
2018-10-12T07:38:53.316Z,17.88
2018-10-12T07:40:59.464Z,17.88
2018-10-12T07:43:05.640Z,17.85
2018-10-12T07:45:11.788Z,17.82
2018-10-12T07:47:18.030Z,17.79
2018-10-12T07:49:24.103Z,17.75
2018-10-12T07:51:30.188Z,17.74
2018-10-12T07:53:36.390Z,17.77
2018-10-12T07:55:42.712Z,17.82
2018-10-12T07:57:48.824Z,17.87
2018-10-12T07:59:54.957Z,17.93
2018-10-12T08:02:01.173Z,18.00
2018-10-12T08:04:07.309Z,18.07
2018-10-12T08:06:13.555Z,18.17
2018-10-12T08:08:19.828Z,18.25
2018-10-12T08:10:25.947Z,18.32
2018-10-12T08:12:32.113Z,18.39
2018-10-12T08:14:38.413Z,18.46
2018-10-12T08:16:44.566Z,18.54
2018-10-12T08:18:50.666Z,18.61
2018-10-12T08:20:56.828Z,18.68
2018-10-12T08:23:03.166Z,18.76
2018-10-12T08:25:09.332Z,18.83
2018-10-12T08:27:15.526Z,18.91
2018-10-12T08:29:25.445Z,18.96
2018-10-12T08:31:31.577Z,19.04
2018-10-12T08:33:37.876Z,19.10
2018-10-12T08:35:44.027Z,19.15
2018-10-12T08:37:50.136Z,19.21
2018-10-12T08:39:56.304Z,19.28
2018-10-12T08:42:02.662Z,19.35
2018-10-12T08:44:08.906Z,19.42
2018-10-12T08:46:15.063Z,19.48
2018-10-12T08:48:21.152Z,19.55
2018-10-12T08:50:27.360Z,19.64
2018-10-12T08:52:33.513Z,19.71
2018-10-12T08:54:39.600Z,19.78
2018-10-12T08:56:45.671Z,19.85
2018-10-12T08:58:51.751Z,19.92
2018-10-12T09:00:57.828Z,19.99
2018-10-12T09:03:04.134Z,20.05
2018-10-12T09:05:10.161Z,20.10
2018-10-12T09:07:16.310Z,20.17
2018-10-12T09:09:22.365Z,20.23
2018-10-12T09:11:29.058Z,20.28
2018-10-12T09:13:35.128Z,20.33
2018-10-12T09:15:42.295Z,20.41
2018-10-12T09:17:48.474Z,20.49
2018-10-12T09:19:56.136Z,20.56
2018-10-12T09:22:02.326Z,20.62
2018-10-12T09:24:08.645Z,20.70
2018-10-12T09:26:14.832Z,20.76
2018-10-12T09:28:20.952Z,20.81
2018-10-12T09:30:27.154Z,20.88
2018-10-12T09:32:33.303Z,20.93
2018-10-12T09:34:39.384Z,20.97
2018-10-12T09:36:45.663Z,21.03
2018-10-12T09:38:52.209Z,21.09
2018-10-12T09:40:58.491Z,21.13
2018-10-12T09:43:04.566Z,21.18
2018-10-12T09:45:10.995Z,21.25
2018-10-12T09:47:17.140Z,21.31
2018-10-12T09:49:23.302Z,21.39
2018-10-12T09:51:29.492Z,21.45
2018-10-12T09:53:36.167Z,21.52
2018-10-12T09:55:42.311Z,21.59
2018-10-12T09:57:48.531Z,21.63
2018-10-12T09:59:55.056Z,21.68
2018-10-12T10:02:06.425Z,21.73
2018-10-12T10:04:18.339Z,21.80
2018-10-12T10:06:24.475Z,21.86
2018-10-12T10:08:30.641Z,21.91
2018-10-12T10:10:36.681Z,22.00
2018-10-12T10:12:42.802Z,22.07
2018-10-12T10:14:49.588Z,22.14
2018-10-12T10:16:55.662Z,22.21
2018-10-12T10:19:01.788Z,22.30
2018-10-12T10:21:07.938Z,22.36
2018-10-12T10:23:14.069Z,22.43
2018-10-12T10:25:20.282Z,22.50
2018-10-12T10:27:26.447Z,22.56
2018-10-12T10:29:32.548Z,22.61
2018-10-12T10:31:38.686Z,22.65
2018-10-12T10:33:44.766Z,22.71
2018-10-12T10:35:50.928Z,22.77
2018-10-12T10:37:57.157Z,22.82
2018-10-12T10:40:03.303Z,22.88
2018-10-12T10:42:09.512Z,22.96
2018-10-12T10:44:15.607Z,23.04
2018-10-12T10:46:21.825Z,23.12
2018-10-12T10:48:27.875Z,23.18
2018-10-12T10:50:33.964Z,23.21
2018-10-12T10:52:40.180Z,23.26
2018-10-12T10:54:46.291Z,23.32
2018-10-12T10:56:52.640Z,23.38
2018-10-12T10:58:58.775Z,23.44
2018-10-12T11:01:05.065Z,23.52
2018-10-12T11:03:11.138Z,23.57
2018-10-12T11:05:17.560Z,23.61
2018-10-12T11:07:23.679Z,23.64
2018-10-12T11:09:29.780Z,23.69
2018-10-12T11:11:36.045Z,23.74
2018-10-12T11:13:42.151Z,23.78
2018-10-12T11:15:48.300Z,23.82
2018-10-12T11:17:54.368Z,23.88
2018-10-12T11:20:00.452Z,23.96
2018-10-12T11:22:06.871Z,24.01
2018-10-12T11:24:12.971Z,24.05
2018-10-12T11:26:19.327Z,24.09
2018-10-12T11:28:25.473Z,24.12
2018-10-12T11:30:32.143Z,24.16
2018-10-12T11:32:38.314Z,24.20
2018-10-12T11:34:44.468Z,24.24
2018-10-12T11:36:50.606Z,24.31
2018-10-12T11:38:56.995Z,24.37
2018-10-12T11:41:03.120Z,24.43
2018-10-12T11:43:30.683Z,24.49
2018-10-12T11:45:36.919Z,24.53
2018-10-12T11:47:43.141Z,24.56
2018-10-12T11:49:49.224Z,24.60
2018-10-12T11:51:55.389Z,24.65
2018-10-12T11:54:01.684Z,24.70
2018-10-12T11:56:07.832Z,24.78
2018-10-12T11:58:13.974Z,24.83
2018-10-12T12:00:20.062Z,24.86
2018-10-12T12:02:26.311Z,24.88
2018-10-12T12:04:32.483Z,24.89
2018-10-12T12:06:38.602Z,24.93
2018-10-12T12:08:44.763Z,24.94
2018-10-12T12:10:50.872Z,24.98
2018-10-12T12:12:57.101Z,25.01
2018-10-12T12:15:03.294Z,25.07
2018-10-12T12:17:09.392Z,25.12
2018-10-12T12:19:15.752Z,25.19
2018-10-12T12:21:22.197Z,25.24
2018-10-12T12:23:28.331Z,25.30
2018-10-12T12:25:34.487Z,25.36
2018-10-12T12:27:40.760Z,25.38
2018-10-12T12:29:46.934Z,25.41
2018-10-12T12:31:53.069Z,25.46
2018-10-12T12:33:59.179Z,25.50
2018-10-12T12:36:06.600Z,25.55
2018-10-12T12:38:12.480Z,25.58
2018-10-12T12:40:18.581Z,25.61
2018-10-12T12:42:24.815Z,25.63
2018-10-12T12:44:31.282Z,25.66
2018-10-12T12:46:37.451Z,25.71
2018-10-12T12:48:43.855Z,25.73
2018-10-12T12:50:49.682Z,25.75
2018-10-12T12:52:55.908Z,25.79
2018-10-12T12:55:02.047Z,25.82
2018-10-12T12:57:08.440Z,25.87
2018-10-12T12:59:14.656Z,25.92
2018-10-12T13:01:20.917Z,25.95
2018-10-12T13:03:27.047Z,26.00
2018-10-12T13:05:33.161Z,26.03
2018-10-12T13:07:39.334Z,26.04
2018-10-12T13:09:45.416Z,26.09
2018-10-12T13:11:51.525Z,26.10
2018-10-12T13:13:57.776Z,26.12
2018-10-12T13:16:03.966Z,26.14
2018-10-12T13:18:10.105Z,26.16
2018-10-12T13:20:16.218Z,26.17
2018-10-12T13:22:22.301Z,26.21
2018-10-12T13:24:28.504Z,26.23
2018-10-12T13:26:34.636Z,26.25
2018-10-12T13:28:40.837Z,26.27
2018-10-12T13:30:47.053Z,26.31
2018-10-12T13:32:53.182Z,26.35
2018-10-12T13:34:59.256Z,26.37
2018-10-12T13:37:05.500Z,26.40
2018-10-12T13:39:13.077Z,26.40
2018-10-12T13:41:19.149Z,26.41
2018-10-12T13:43:25.285Z,26.41
2018-10-12T13:45:31.494Z,26.43
2018-10-12T13:47:37.764Z,26.46
2018-10-12T13:49:43.934Z,26.49
2018-10-12T13:51:50.078Z,26.52
2018-10-12T13:53:56.249Z,26.55
2018-10-12T13:56:02.361Z,26.57
2018-10-12T13:58:08.490Z,26.57
2018-10-12T14:00:14.730Z,26.60
2018-10-12T14:02:21.112Z,26.63
2018-10-12T14:04:28.118Z,26.65
2018-10-12T14:06:34.390Z,26.69
2018-10-12T14:08:40.509Z,26.73
2018-10-12T14:10:46.623Z,26.75
2018-10-12T14:12:52.839Z,26.76
2018-10-12T14:14:58.962Z,26.78
2018-10-12T14:17:05.102Z,26.80
2018-10-12T14:19:11.729Z,26.81
2018-10-12T14:21:17.503Z,26.82
2018-10-12T14:23:23.824Z,26.84
2018-10-12T14:25:30.014Z,26.85
2018-10-12T14:27:36.173Z,26.86
2018-10-12T14:29:42.399Z,26.88
2018-10-12T14:31:48.589Z,26.90
2018-10-12T14:33:54.820Z,26.90
2018-10-12T14:36:00.972Z,26.93
2018-10-12T14:38:07.180Z,26.95
2018-10-12T14:40:13.534Z,26.96
2018-10-12T14:42:19.681Z,26.95
2018-10-12T14:44:25.906Z,26.94
2018-10-12T14:46:31.980Z,26.94
2018-10-12T14:48:38.114Z,26.95
2018-10-12T14:50:44.270Z,26.94
2018-10-12T14:52:50.452Z,26.92
2018-10-12T14:54:56.603Z,26.92
2018-10-12T14:57:02.762Z,26.91
2018-10-12T14:59:09.234Z,26.91
2018-10-12T15:01:15.313Z,26.93
2018-10-12T15:03:21.541Z,26.95
2018-10-12T15:05:27.718Z,26.95
2018-10-12T15:07:33.777Z,26.97
2018-10-12T15:09:40.859Z,26.97
2018-10-12T15:11:47.049Z,26.98
2018-10-12T15:13:53.280Z,27.00
2018-10-12T15:15:59.409Z,26.99
2018-10-12T15:18:05.530Z,27.00
2018-10-12T15:20:11.777Z,26.98
2018-10-12T15:22:18.183Z,26.95
2018-10-12T15:24:24.362Z,26.95
2018-10-12T15:26:30.553Z,26.93
2018-10-12T15:28:36.677Z,26.92
2018-10-12T15:30:42.925Z,26.89
2018-10-12T15:32:49.048Z,26.88
2018-10-12T15:34:55.144Z,26.89
2018-10-12T15:37:01.523Z,26.88
2018-10-12T15:39:08.026Z,26.88
2018-10-12T15:41:14.238Z,26.87
2018-10-12T15:43:20.576Z,26.85
2018-10-12T15:45:26.688Z,26.82
2018-10-12T15:47:32.835Z,26.80
2018-10-12T15:49:39.002Z,26.76
2018-10-12T15:51:45.089Z,26.73
2018-10-12T15:53:51.546Z,26.68
2018-10-12T15:55:57.768Z,26.64
2018-10-12T15:58:03.926Z,26.60
2018-10-12T16:00:10.184Z,26.56
2018-10-12T16:02:16.676Z,26.50
2018-10-12T16:04:22.901Z,26.46
2018-10-12T16:06:29.226Z,26.41
2018-10-12T16:08:35.405Z,26.35
2018-10-12T16:10:41.674Z,26.30
2018-10-12T16:12:48.060Z,26.23
2018-10-12T16:14:54.211Z,26.13
2018-10-12T16:17:00.999Z,26.05
2018-10-12T16:19:07.320Z,25.96
2018-10-12T16:21:13.474Z,25.84
2018-10-12T16:23:19.673Z,25.75
2018-10-12T16:26:10.665Z,25.67
2018-10-12T16:28:16.776Z,25.56
2018-10-12T16:30:23.017Z,25.49
2018-10-12T16:32:29.374Z,25.41
2018-10-12T16:34:35.491Z,25.34
2018-10-12T16:36:41.813Z,25.27
2018-10-12T16:38:48.018Z,25.20
2018-10-12T16:40:54.218Z,25.12
2018-10-12T16:43:00.458Z,25.05
2018-10-12T16:45:06.701Z,24.98
2018-10-12T16:47:12.821Z,24.94
2018-10-12T16:49:18.958Z,24.88
2018-10-12T16:51:25.248Z,24.82
2018-10-12T16:53:31.557Z,24.76
2018-10-12T16:55:37.801Z,24.70
2018-10-12T16:57:44.044Z,24.64
2018-10-12T16:59:50.187Z,24.59
2018-10-12T17:01:56.328Z,24.54
2018-10-12T17:04:02.683Z,24.49
2018-10-12T17:06:08.889Z,24.43
2018-10-12T17:08:15.200Z,24.35
2018-10-12T17:10:21.345Z,24.24
2018-10-12T17:12:27.673Z,24.13
2018-10-12T17:14:33.783Z,24.03
2018-10-12T17:16:40.000Z,23.96
2018-10-12T17:18:46.191Z,23.91
2018-10-12T17:20:52.399Z,23.89
2018-10-12T17:22:58.621Z,23.86
2018-10-12T17:25:04.895Z,23.83
2018-10-12T17:27:11.214Z,23.81
2018-10-12T17:29:17.495Z,23.76
2018-10-12T17:31:23.653Z,23.71
2018-10-12T17:33:30.818Z,23.67
2018-10-12T17:35:37.000Z,23.59
2018-10-12T17:37:43.146Z,23.51
2018-10-12T17:39:49.305Z,23.44
2018-10-12T17:41:55.522Z,23.37
2018-10-12T17:44:01.720Z,23.31
2018-10-12T17:46:08.081Z,23.26
2018-10-12T17:48:14.256Z,23.21
2018-10-12T17:50:20.486Z,23.17
2018-10-12T17:52:27.701Z,23.12
2018-10-12T17:54:34.137Z,23.05
2018-10-12T17:56:40.298Z,23.01
2018-10-12T17:58:46.482Z,22.96
2018-10-12T18:00:52.813Z,22.94
2018-10-12T18:02:59.155Z,22.94
2018-10-12T18:05:05.361Z,22.94
2018-10-12T18:07:11.887Z,22.92
2018-10-12T18:09:18.035Z,22.93
2018-10-12T18:11:24.340Z,22.91
2018-10-12T18:13:30.553Z,22.87
2018-10-12T18:15:36.738Z,22.76
2018-10-12T18:17:42.962Z,22.60
2018-10-12T18:19:49.232Z,22.43
2018-10-12T18:21:55.309Z,22.30
2018-10-12T18:24:01.719Z,22.19
2018-10-12T18:26:08.011Z,22.13
2018-10-12T18:28:14.827Z,22.06
2018-10-12T18:30:21.130Z,22.04
2018-10-12T18:32:27.389Z,21.98
2018-10-12T18:34:33.723Z,21.93
2018-10-12T18:36:39.947Z,21.89
2018-10-12T18:38:46.176Z,21.87
2018-10-12T18:40:59.552Z,21.82
2018-10-12T18:43:13.250Z,21.79
2018-10-12T18:45:27.094Z,21.76
2018-10-12T18:47:41.157Z,21.73
2018-10-12T18:49:55.020Z,21.72
2018-10-12T18:52:09.230Z,21.70
2018-10-12T18:54:23.099Z,21.64
2018-10-12T18:56:36.502Z,21.60
2018-10-12T18:58:50.418Z,21.54
2018-10-12T19:01:04.505Z,21.50
2018-10-12T19:03:18.425Z,21.48
2018-10-12T19:05:32.564Z,21.50
2018-10-12T19:07:46.589Z,21.49
2018-10-12T19:10:00.564Z,21.47
2018-10-12T19:12:14.681Z,21.47
2018-10-12T19:14:28.670Z,21.49
2018-10-12T19:16:42.846Z,21.48
2018-10-12T19:21:15.980Z,21.49
2018-10-12T19:23:29.792Z,21.51
2018-10-12T19:25:43.959Z,21.51
2018-10-12T19:27:57.841Z,21.50
2018-10-12T19:30:11.788Z,21.47
2018-10-12T19:32:25.675Z,21.45
2018-10-12T19:34:39.585Z,21.43
2018-10-12T19:36:53.547Z,21.42
2018-10-12T19:39:07.529Z,21.41
2018-10-12T19:41:21.371Z,21.32
2018-10-12T19:43:35.206Z,21.17
2018-10-12T19:45:49.246Z,21.00
2018-10-12T19:48:03.171Z,20.90
2018-10-12T19:50:17.061Z,20.77
2018-10-12T19:52:30.926Z,20.64
2018-10-12T19:54:45.019Z,20.58
2018-10-12T19:56:59.037Z,20.58
2018-10-12T19:59:13.055Z,20.61
2018-10-12T20:01:27.172Z,20.64
2018-10-12T20:03:41.213Z,20.61
2018-10-12T20:05:55.454Z,20.60
2018-10-12T20:08:09.560Z,20.55
2018-10-12T20:10:23.796Z,20.49
2018-10-12T20:12:37.645Z,20.49
2018-10-12T20:14:51.509Z,20.48
2018-10-12T20:17:06.193Z,20.45
2018-10-12T20:19:20.453Z,20.37
2018-10-12T20:21:34.588Z,20.28
2018-10-12T20:23:48.772Z,20.21
2018-10-12T20:26:02.516Z,20.13
2018-10-12T20:28:16.486Z,20.04
2018-10-12T20:30:30.506Z,19.95
2018-10-12T20:32:44.603Z,19.87
2018-10-12T20:34:58.312Z,19.79
2018-10-12T20:37:12.331Z,19.74
2018-10-12T20:39:26.423Z,19.68
2018-10-12T20:41:40.364Z,19.63
2018-10-12T20:43:56.017Z,19.59
2018-10-12T20:46:09.417Z,19.56
2018-10-12T20:48:23.460Z,19.53
2018-10-12T20:50:37.360Z,19.54
2018-10-12T20:52:51.426Z,19.60
2018-10-12T20:55:05.571Z,19.64
2018-10-12T20:57:19.509Z,19.67
2018-10-12T20:59:26.459Z,19.66
2018-10-12T21:01:32.796Z,19.62
2018-10-12T21:03:38.976Z,19.56
2018-10-12T21:05:45.423Z,19.51
2018-10-12T21:07:51.604Z,19.50
2018-10-12T21:09:57.830Z,19.51
2018-10-12T21:12:04.048Z,19.54
2018-10-12T21:14:10.273Z,19.56
2018-10-12T21:16:16.536Z,19.56
2018-10-12T21:18:22.738Z,19.52
2018-10-12T21:20:28.933Z,19.48
2018-10-12T21:22:35.202Z,19.49
2018-10-12T21:24:41.371Z,19.52
2018-10-12T21:26:47.666Z,19.55
2018-10-12T21:28:53.942Z,19.55
2018-10-12T21:31:00.104Z,19.49
2018-10-12T21:33:06.229Z,19.39
2018-10-12T21:35:12.524Z,19.26
2018-10-12T21:37:18.793Z,19.15
2018-10-12T21:39:24.950Z,19.08
2018-10-12T21:41:31.161Z,19.01
2018-10-12T21:43:37.359Z,19.00
2018-10-12T21:45:43.789Z,19.03
2018-10-12T21:47:49.925Z,19.07
2018-10-12T21:49:56.229Z,19.08
2018-10-12T21:52:02.466Z,19.03
2018-10-12T21:54:08.605Z,18.99
2018-10-12T21:56:14.765Z,18.96
2018-10-12T21:58:21.037Z,18.89
2018-10-12T22:00:27.274Z,18.85
2018-10-12T22:02:33.391Z,18.85
2018-10-12T22:04:39.684Z,18.89
2018-10-12T22:06:45.867Z,18.91
2018-10-12T22:08:53.275Z,18.87
2018-10-12T22:10:59.360Z,18.85
2018-10-12T22:13:05.597Z,18.86
2018-10-12T22:15:11.715Z,18.89
2018-10-12T22:17:17.966Z,18.93
2018-10-12T22:19:24.074Z,18.97
2018-10-12T22:21:30.262Z,19.00
2018-10-12T22:23:36.405Z,19.02
2018-10-12T22:25:42.601Z,18.97
2018-10-12T22:27:48.706Z,18.85
2018-10-12T22:29:54.957Z,18.69
2018-10-12T22:32:01.172Z,18.55
2018-10-12T22:34:07.710Z,18.48
2018-10-12T22:36:14.088Z,18.36
2018-10-12T22:38:20.340Z,18.29
2018-10-12T22:40:26.505Z,18.21
2018-10-12T22:42:32.623Z,18.15
2018-10-12T22:44:38.692Z,18.12
2018-10-12T22:46:44.924Z,18.10
2018-10-12T22:48:51.018Z,18.07
2018-10-12T22:50:57.125Z,18.06
2018-10-12T22:53:03.296Z,18.07
2018-10-12T22:55:09.064Z,18.06
2018-10-12T22:57:15.156Z,18.07
2018-10-12T22:59:21.327Z,18.09
2018-10-12T23:01:27.464Z,18.10
2018-10-12T23:03:33.588Z,18.06
2018-10-12T23:05:39.811Z,17.99
2018-10-12T23:07:46.219Z,17.95
2018-10-12T23:09:52.359Z,17.93
2018-10-12T23:11:58.531Z,17.93
2018-10-12T23:14:04.748Z,17.92
2018-10-12T23:16:10.903Z,17.88
2018-10-12T23:18:17.015Z,17.85
2018-10-12T23:20:23.135Z,17.82
2018-10-12T23:22:29.596Z,17.76
2018-10-12T23:24:35.882Z,17.73
2018-10-12T23:26:42.012Z,17.73
2018-10-12T23:28:48.140Z,17.71
2018-10-12T23:30:54.231Z,17.73
2018-10-12T23:34:10.423Z,17.77
2018-10-12T23:36:16.472Z,17.73
2018-10-12T23:38:22.875Z,17.67
2018-10-12T23:40:29.009Z,17.63
2018-10-12T23:42:35.145Z,17.63
2018-10-12T23:44:41.271Z,17.65
2018-10-12T23:46:47.376Z,17.63
2018-10-12T23:48:53.511Z,17.59
2018-10-12T23:50:59.623Z,17.57
2018-10-12T23:53:05.768Z,17.53
2018-10-12T23:55:11.866Z,17.49
2018-10-12T23:57:18.141Z,17.44
2018-10-12T23:59:24.362Z,17.43
